createdAt,value
2018-07-02T00:01:36.772Z,95702.00
2018-07-02T00:04:08.070Z,95705.00
2018-07-02T00:06:50.099Z,95699.00
2018-07-02T00:09:21.453Z,95700.00
2018-07-02T00:11:52.825Z,95702.00
2018-07-02T00:14:24.032Z,95695.00
2018-07-02T00:16:55.388Z,95695.00
2018-07-02T00:19:26.689Z,95695.00
2018-07-02T00:21:58.125Z,95694.00
2018-07-02T00:24:29.371Z,95697.00
2018-07-02T00:27:00.590Z,95696.00
2018-07-02T00:29:31.784Z,95696.00
2018-07-02T00:32:03.092Z,95698.00
2018-07-02T00:34:34.330Z,95693.00
2018-07-02T00:37:05.919Z,95689.00
2018-07-02T00:39:37.197Z,95683.00
2018-07-02T00:42:08.479Z,95680.00
2018-07-02T00:44:39.688Z,95682.00
2018-07-02T00:47:11.061Z,95685.00
2018-07-02T00:49:42.380Z,95679.00
2018-07-02T00:52:13.784Z,95680.00
2018-07-02T00:54:45.116Z,95680.00
2018-07-02T00:57:16.334Z,95687.00
2018-07-02T00:59:47.976Z,95682.00
2018-07-02T01:02:19.247Z,95680.00
2018-07-02T01:04:50.665Z,95670.00
2018-07-02T01:07:21.871Z,95669.00
2018-07-02T01:09:53.239Z,95671.00
2018-07-02T01:12:24.539Z,95664.00
2018-07-02T01:14:55.888Z,95666.00
2018-07-02T01:17:27.068Z,95674.00
2018-07-02T01:19:58.405Z,95681.00
2018-07-02T01:22:29.639Z,95676.00
2018-07-02T01:25:00.944Z,95678.00
2018-07-02T01:27:34.595Z,95673.00
2018-07-02T01:30:06.876Z,95673.00
2018-07-02T01:32:38.182Z,95670.00
2018-07-02T01:35:09.803Z,95672.00
2018-07-02T01:37:41.068Z,95673.00
2018-07-02T01:40:12.342Z,95662.00
2018-07-02T01:42:43.534Z,95669.00
2018-07-02T01:45:14.916Z,95663.00
2018-07-02T01:47:46.125Z,95663.00
2018-07-02T01:50:17.382Z,95656.00
2018-07-02T01:52:48.692Z,95658.00
2018-07-02T01:55:19.992Z,95662.00
2018-07-02T01:57:51.167Z,95666.00
2018-07-02T02:00:22.478Z,95670.00
2018-07-02T02:02:53.548Z,95663.00
2018-07-02T02:05:24.744Z,95655.00
2018-07-02T02:07:56.199Z,95650.00
2018-07-02T02:10:27.583Z,95654.00
2018-07-02T02:12:59.024Z,95651.00
2018-07-02T02:15:30.462Z,95656.00
2018-07-02T02:18:01.790Z,95652.00
2018-07-02T02:20:33.142Z,95663.00
2018-07-02T02:23:04.373Z,95663.00
2018-07-02T02:25:35.694Z,95661.00
2018-07-02T02:28:07.057Z,95656.00
2018-07-02T02:30:38.651Z,95658.00
2018-07-02T02:33:10.331Z,95659.00
2018-07-02T02:35:41.635Z,95665.00
2018-07-02T02:38:13.226Z,95668.00
2018-07-02T02:40:44.467Z,95669.00
2018-07-02T02:43:15.772Z,95667.00
2018-07-02T02:45:46.965Z,95665.00
2018-07-02T02:48:18.332Z,95668.00
2018-07-02T02:50:49.547Z,95672.00
2018-07-02T02:53:20.893Z,95669.00
2018-07-02T02:55:52.144Z,95663.00
2018-07-02T02:58:23.374Z,95668.00
2018-07-02T03:00:54.628Z,95669.00
2018-07-02T03:03:25.925Z,95666.00
2018-07-02T03:05:57.179Z,95669.00
2018-07-02T03:08:28.635Z,95661.00
2018-07-02T03:10:59.968Z,95671.00
2018-07-02T03:13:31.304Z,95676.00
2018-07-02T03:16:02.757Z,95679.00
2018-07-02T03:18:34.005Z,95681.00
2018-07-02T03:21:05.278Z,95676.00
2018-07-02T03:23:36.760Z,95671.00
2018-07-02T03:26:08.073Z,95668.00
2018-07-02T03:28:39.460Z,95662.00
2018-07-02T03:31:11.081Z,95668.00
2018-07-02T03:33:42.316Z,95673.00
2018-07-02T03:36:13.628Z,95665.00
2018-07-02T03:38:44.795Z,95662.00
2018-07-02T03:41:16.122Z,95659.00
2018-07-02T03:43:47.601Z,95659.00
2018-07-02T03:46:18.784Z,95651.00
2018-07-02T03:48:49.959Z,95653.00
2018-07-02T03:51:21.496Z,95653.00
2018-07-02T03:53:52.727Z,95654.00
2018-07-02T03:56:23.976Z,95654.00
2018-07-02T03:58:55.306Z,95653.00
2018-07-02T04:01:26.600Z,95663.00
2018-07-02T04:03:57.920Z,95660.00
2018-07-02T04:06:29.101Z,95660.00
2018-07-02T04:09:00.327Z,95663.00
2018-07-02T04:11:31.598Z,95656.00
2018-07-02T04:14:02.909Z,95658.00
2018-07-02T04:16:34.188Z,95657.00
2018-07-02T04:19:13.676Z,95656.00
2018-07-02T04:21:45.087Z,95655.00
2018-07-02T04:24:16.506Z,95650.00
2018-07-02T04:26:47.691Z,95644.00
2018-07-02T04:29:19.027Z,95644.00
2018-07-02T04:31:50.156Z,95644.00
2018-07-02T04:34:21.363Z,95646.00
2018-07-02T04:36:52.698Z,95647.00
2018-07-02T04:39:27.324Z,95645.00
2018-07-02T04:41:58.572Z,95638.00
2018-07-02T04:44:29.912Z,95634.00
2018-07-02T04:47:01.341Z,95635.00
2018-07-02T04:49:32.747Z,95627.00
2018-07-02T04:52:04.500Z,95635.00
2018-07-02T04:54:35.827Z,95640.00
2018-07-02T04:57:07.216Z,95643.00
2018-07-02T04:59:38.931Z,95642.00
2018-07-02T05:02:10.184Z,95644.00
2018-07-02T05:04:41.271Z,95642.00
2018-07-02T05:07:12.979Z,95641.00
2018-07-02T05:09:45.303Z,95640.00
2018-07-02T05:12:16.725Z,95636.00
2018-07-02T05:14:47.963Z,95641.00
2018-07-02T05:17:20.046Z,95635.00
2018-07-02T05:19:51.815Z,95637.00
2018-07-02T05:22:23.104Z,95637.00
2018-07-02T05:24:54.407Z,95642.00
2018-07-02T05:27:25.730Z,95633.00
2018-07-02T05:29:56.907Z,95637.00
2018-07-02T05:32:28.117Z,95643.00
2018-07-02T05:34:59.332Z,95637.00
2018-07-02T05:37:30.436Z,95644.00
2018-07-02T05:40:01.711Z,95637.00
2018-07-02T05:42:33.496Z,95634.00
2018-07-02T05:45:04.723Z,95637.00
2018-07-02T05:47:35.993Z,95635.00
2018-07-02T05:50:07.710Z,95634.00
2018-07-02T05:52:43.858Z,95637.00
2018-07-02T05:55:15.464Z,95643.00
2018-07-02T05:57:46.679Z,95639.00
2018-07-02T06:00:18.115Z,95642.00
2018-07-02T06:02:49.335Z,95645.00
2018-07-02T06:05:21.377Z,95646.00
2018-07-02T06:07:53.377Z,95643.00
2018-07-02T06:10:24.439Z,95637.00
2018-07-02T06:12:55.612Z,95626.00
2018-07-02T06:15:26.845Z,95628.00
2018-07-02T06:18:07.251Z,95623.00
2018-07-02T06:20:39.021Z,95627.00
2018-07-02T06:23:10.286Z,95629.00
2018-07-02T06:25:41.577Z,95617.00
2018-07-02T06:28:12.768Z,95621.00
2018-07-02T06:30:44.236Z,95617.00
2018-07-02T06:33:15.408Z,95614.00
2018-07-02T06:35:46.526Z,95611.00
2018-07-02T06:38:17.640Z,95613.00
2018-07-02T06:40:49.241Z,95614.00
2018-07-02T06:43:20.429Z,95617.00
2018-07-02T06:45:51.727Z,95617.00
2018-07-02T06:48:23.029Z,95617.00
2018-07-02T06:50:54.221Z,95616.00
2018-07-02T06:53:25.422Z,95627.00
2018-07-02T06:55:56.688Z,95626.00
2018-07-02T06:58:27.946Z,95620.00
2018-07-02T07:00:59.390Z,95627.00
2018-07-02T07:03:31.968Z,95622.00
2018-07-02T07:06:03.515Z,95623.00
2018-07-02T07:08:34.762Z,95627.00
2018-07-02T07:11:05.932Z,95625.00
2018-07-02T07:13:37.116Z,95618.00
2018-07-02T07:16:08.430Z,95620.00
2018-07-02T07:18:46.845Z,95622.00
2018-07-02T07:21:20.424Z,95620.00
2018-07-02T07:23:51.867Z,95619.00
2018-07-02T07:26:23.104Z,95607.00
2018-07-02T07:28:54.430Z,95602.00
2018-07-02T07:31:25.513Z,95612.00
2018-07-02T07:33:56.842Z,95618.00
2018-07-02T07:36:28.069Z,95616.00
2018-07-02T07:38:59.375Z,95617.00
2018-07-02T07:41:30.940Z,95609.00
2018-07-02T07:44:02.266Z,95611.00
2018-07-02T07:46:33.460Z,95616.00
2018-07-02T07:49:04.700Z,95607.00
2018-07-02T07:51:37.591Z,95606.00
2018-07-02T07:54:10.766Z,95603.00
2018-07-02T07:56:48.830Z,95609.00
2018-07-02T07:59:20.381Z,95608.00
2018-07-02T08:01:51.758Z,95610.00
2018-07-02T08:04:22.918Z,95612.00
2018-07-02T08:06:54.437Z,95614.00
2018-07-02T08:09:25.765Z,95611.00
2018-07-02T08:11:57.896Z,95610.00
2018-07-02T08:14:29.170Z,95616.00
2018-07-02T08:17:00.623Z,95621.00
2018-07-02T08:19:32.066Z,95616.00
2018-07-02T08:22:03.361Z,95624.00
2018-07-02T08:24:34.769Z,95619.00
2018-07-02T08:27:06.203Z,95616.00
2018-07-02T08:29:37.683Z,95615.00
2018-07-02T08:32:09.266Z,95611.00
2018-07-02T08:34:41.150Z,95607.00
2018-07-02T08:37:12.473Z,95602.00
2018-07-02T08:39:43.993Z,95599.00
2018-07-02T08:42:15.298Z,95598.00
2018-07-02T08:44:46.535Z,95605.00
2018-07-02T08:47:17.783Z,95602.00
2018-07-02T08:49:49.500Z,95608.00
2018-07-02T08:52:20.782Z,95603.00
2018-07-02T08:54:51.937Z,95603.00
2018-07-02T08:57:23.366Z,95598.00
2018-07-02T08:59:54.725Z,95598.00
2018-07-02T09:02:26.088Z,95599.00
2018-07-02T09:04:57.647Z,95598.00
2018-07-02T09:07:28.936Z,95592.00
2018-07-02T09:10:00.319Z,95589.00
2018-07-02T09:12:31.609Z,95591.00
2018-07-02T09:15:03.062Z,95593.00
2018-07-02T09:17:35.229Z,95606.00
2018-07-02T09:20:06.716Z,95597.00
2018-07-02T09:22:38.048Z,95600.00
2018-07-02T09:25:10.271Z,95603.00
2018-07-02T09:27:41.735Z,95595.00
2018-07-02T09:30:13.237Z,95595.00
2018-07-02T09:32:44.697Z,95591.00
2018-07-02T09:35:17.047Z,95586.00
2018-07-02T09:37:48.281Z,95593.00
2018-07-02T09:40:19.751Z,95590.00
2018-07-02T09:42:53.634Z,95585.00
2018-07-02T09:45:29.614Z,95589.00
2018-07-02T09:48:05.583Z,95588.00
2018-07-02T09:50:41.120Z,95588.00
2018-07-02T09:53:29.253Z,95575.00
2018-07-02T09:56:03.177Z,95580.00
2018-07-02T09:58:34.606Z,95577.00
2018-07-02T10:01:06.014Z,95581.00
2018-07-02T10:03:37.121Z,95579.00
2018-07-02T10:06:08.410Z,95582.00
2018-07-02T10:08:39.587Z,95575.00
2018-07-02T10:11:11.281Z,95571.00
2018-07-02T10:13:42.756Z,95578.00
2018-07-02T10:16:19.887Z,95580.00
2018-07-02T10:18:51.756Z,95579.00
2018-07-02T10:21:25.923Z,95578.00
2018-07-02T10:23:57.497Z,95570.00
2018-07-02T10:26:29.180Z,95568.00
2018-07-02T10:29:00.778Z,95570.00
2018-07-02T10:31:32.755Z,95569.00
2018-07-02T10:34:04.194Z,95575.00
2018-07-02T10:36:35.631Z,95565.00
2018-07-02T10:39:09.592Z,95554.00
2018-07-02T10:41:41.376Z,95559.00
2018-07-02T10:44:13.161Z,95557.00
2018-07-02T10:46:44.501Z,95568.00
2018-07-02T10:49:16.065Z,95568.00
2018-07-02T10:51:47.720Z,95579.00
2018-07-02T10:54:22.052Z,95569.00
2018-07-02T10:56:54.097Z,95560.00
2018-07-02T10:59:39.261Z,95548.00
2018-07-02T11:02:22.339Z,95559.00
2018-07-02T11:05:05.957Z,95550.00
2018-07-02T11:07:37.984Z,95544.00
2018-07-02T11:10:09.268Z,95543.00
2018-07-02T11:12:42.172Z,95542.00
2018-07-02T11:15:13.420Z,95548.00
2018-07-02T11:17:44.636Z,95538.00
2018-07-02T11:20:15.818Z,95533.00
2018-07-02T11:22:47.228Z,95534.00
2018-07-02T11:25:18.492Z,95531.00
2018-07-02T11:27:49.844Z,95535.00
2018-07-02T11:30:23.629Z,95534.00
2018-07-02T11:32:56.582Z,95528.00
2018-07-02T11:35:27.996Z,95527.00
2018-07-02T11:37:59.619Z,95527.00
2018-07-02T11:40:35.283Z,95522.00
2018-07-02T11:43:06.601Z,95522.00
2018-07-02T11:45:37.835Z,95519.00
2018-07-02T11:48:09.918Z,95530.00
2018-07-02T11:50:41.711Z,95536.00
2018-07-02T11:53:12.832Z,95527.00
2018-07-02T11:55:44.200Z,95535.00
2018-07-02T11:58:15.255Z,95534.00
2018-07-02T12:00:46.409Z,95535.00
2018-07-02T12:03:18.557Z,95530.00
2018-07-02T12:05:49.987Z,95533.00
2018-07-02T12:08:21.216Z,95531.00
2018-07-02T12:10:52.415Z,95534.00
2018-07-02T12:13:23.697Z,95538.00
2018-07-02T12:15:54.860Z,95543.00
2018-07-02T12:18:26.240Z,95541.00
2018-07-02T12:20:57.614Z,95542.00
2018-07-02T12:23:28.695Z,95540.00
2018-07-02T12:26:00.273Z,95534.00
2018-07-02T12:28:31.589Z,95546.00
2018-07-02T12:31:03.179Z,95532.00
2018-07-02T12:33:34.422Z,95532.00
2018-07-02T12:36:06.269Z,95539.00
2018-07-02T12:38:37.452Z,95531.00
2018-07-02T12:41:08.762Z,95528.00
2018-07-02T12:43:39.967Z,95528.00
2018-07-02T12:46:11.213Z,95532.00
2018-07-02T12:48:42.677Z,95526.00
2018-07-02T12:51:14.280Z,95535.00
2018-07-02T12:53:46.155Z,95520.00
2018-07-02T12:56:17.599Z,95520.00
2018-07-02T12:58:48.813Z,95527.00
2018-07-02T13:01:20.100Z,95523.00
2018-07-02T13:03:52.627Z,95521.00
2018-07-02T13:06:24.023Z,95530.00
2018-07-02T13:08:55.295Z,95523.00
2018-07-02T13:11:26.540Z,95522.00
2018-07-02T13:13:57.859Z,95525.00
2018-07-02T13:16:30.483Z,95525.00
2018-07-02T13:19:05.605Z,95527.00
2018-07-02T13:21:37.916Z,95519.00
2018-07-02T13:24:09.230Z,95516.00
2018-07-02T13:26:41.213Z,95519.00
2018-07-02T13:29:15.193Z,95517.00
2018-07-02T13:31:46.912Z,95513.00
2018-07-02T13:34:32.462Z,95507.00
2018-07-02T13:37:16.604Z,95512.00
2018-07-02T13:39:55.402Z,95513.00
2018-07-02T13:42:33.643Z,95504.00
2018-07-02T13:45:14.163Z,95504.00
2018-07-02T13:48:04.597Z,95504.00
2018-07-02T13:50:58.515Z,95502.00
2018-07-02T13:53:33.511Z,95505.00
2018-07-02T13:56:04.580Z,95500.00
2018-07-02T13:58:36.211Z,95502.00
2018-07-02T14:01:07.522Z,95502.00
2018-07-02T14:03:38.757Z,95502.00
2018-07-02T14:06:10.103Z,95503.00
2018-07-02T14:08:41.346Z,95503.00
2018-07-02T14:11:22.072Z,95496.00
2018-07-02T14:13:54.740Z,95495.00
2018-07-02T14:16:26.003Z,95500.00
2018-07-02T14:18:58.142Z,95500.00
2018-07-02T14:21:29.744Z,95500.00
2018-07-02T14:24:00.985Z,95495.00
2018-07-02T14:26:33.150Z,95501.00
2018-07-02T14:29:04.321Z,95491.00
2018-07-02T14:31:35.756Z,95497.00
2018-07-02T14:34:07.066Z,95497.00
2018-07-02T14:36:38.300Z,95495.00
2018-07-02T14:39:12.541Z,95502.00
2018-07-02T14:41:44.164Z,95495.00
2018-07-02T14:44:15.429Z,95488.00
2018-07-02T14:46:46.733Z,95492.00
2018-07-02T14:49:18.178Z,95495.00
2018-07-02T14:51:49.571Z,95487.00
2018-07-02T14:54:21.062Z,95490.00
2018-07-02T14:56:52.363Z,95490.00
2018-07-02T14:59:23.668Z,95496.00
2018-07-02T15:01:54.871Z,95496.00
2018-07-02T15:04:28.416Z,95496.00
2018-07-02T15:07:01.732Z,95490.00
2018-07-02T15:09:33.117Z,95491.00
2018-07-02T15:12:04.541Z,95488.00
2018-07-02T15:14:35.976Z,95485.00
2018-07-02T15:17:07.227Z,95480.00
2018-07-02T15:19:38.626Z,95480.00
2018-07-02T15:22:09.959Z,95477.00
2018-07-02T15:24:41.076Z,95480.00
2018-07-02T15:27:13.602Z,95480.00
2018-07-02T15:29:44.853Z,95479.00
2018-07-02T15:32:16.125Z,95479.00
2018-07-02T15:34:53.174Z,95475.00
2018-07-02T15:37:24.634Z,95477.00
2018-07-02T15:39:57.194Z,95480.00
2018-07-02T15:42:28.576Z,95473.00
2018-07-02T15:45:00.433Z,95476.00
2018-07-02T15:47:31.725Z,95474.00
2018-07-02T15:50:03.412Z,95478.00
2018-07-02T15:52:34.743Z,95479.00
2018-07-02T15:55:06.032Z,95485.00
2018-07-02T15:57:37.507Z,95483.00
2018-07-02T16:00:09.088Z,95481.00
2018-07-02T16:02:40.298Z,95480.00
2018-07-02T16:05:11.473Z,95488.00
2018-07-02T16:07:42.713Z,95488.00
2018-07-02T16:10:14.019Z,95488.00
2018-07-02T16:12:45.241Z,95486.00
2018-07-02T16:15:16.375Z,95483.00
2018-07-02T16:17:47.665Z,95482.00
2018-07-02T16:20:18.985Z,95481.00
2018-07-02T16:22:50.064Z,95481.00
2018-07-02T16:25:21.408Z,95476.00
2018-07-02T16:27:52.852Z,95474.00
2018-07-02T16:30:24.080Z,95478.00
2018-07-02T16:32:55.585Z,95479.00
2018-07-02T16:35:26.886Z,95476.00
2018-07-02T16:37:59.138Z,95477.00
2018-07-02T16:40:30.406Z,95471.00
2018-07-02T16:43:01.650Z,95478.00
2018-07-02T16:45:33.176Z,95480.00
2018-07-02T16:48:04.675Z,95477.00
2018-07-02T16:50:36.075Z,95474.00
2018-07-02T16:53:07.318Z,95478.00
2018-07-02T16:55:38.651Z,95478.00
2018-07-02T16:58:09.864Z,95476.00
2018-07-02T17:00:41.161Z,95474.00
2018-07-02T17:03:13.959Z,95479.00
2018-07-02T17:05:45.482Z,95481.00
2018-07-02T17:08:16.738Z,95485.00
2018-07-02T17:10:47.906Z,95479.00
2018-07-02T17:13:19.294Z,95479.00
2018-07-02T17:15:50.487Z,95484.00
2018-07-02T17:18:21.845Z,95484.00
2018-07-02T17:20:52.966Z,95484.00
2018-07-02T17:23:24.413Z,95484.00
2018-07-02T17:25:55.719Z,95480.00
2018-07-02T17:28:27.043Z,95477.00
2018-07-02T17:30:58.494Z,95482.00
2018-07-02T17:33:29.732Z,95484.00
2018-07-02T17:36:01.049Z,95491.00
2018-07-02T17:38:32.200Z,95489.00
2018-07-02T17:41:03.597Z,95485.00
2018-07-02T17:43:35.027Z,95486.00
2018-07-02T17:46:06.232Z,95484.00
2018-07-02T17:48:37.511Z,95490.00
2018-07-02T17:51:08.825Z,95491.00
2018-07-02T17:53:40.336Z,95491.00
2018-07-02T17:56:11.686Z,95497.00
2018-07-02T17:58:43.031Z,95500.00
2018-07-02T18:01:14.574Z,95499.00
2018-07-02T18:03:46.090Z,95503.00
2018-07-02T18:06:17.324Z,95504.00
2018-07-02T18:08:49.287Z,95510.00
2018-07-02T18:11:20.514Z,95511.00
2018-07-02T18:13:52.183Z,95516.00
2018-07-02T18:16:23.468Z,95516.00
2018-07-02T18:18:54.787Z,95515.00
2018-07-02T18:21:25.992Z,95520.00
2018-07-02T18:23:57.237Z,95521.00
2018-07-02T18:26:28.731Z,95523.00
2018-07-02T18:29:01.115Z,95518.00
2018-07-02T18:31:32.500Z,95519.00
2018-07-02T18:34:06.081Z,95518.00
2018-07-02T18:36:39.486Z,95523.00
2018-07-02T18:39:12.861Z,95529.00
2018-07-02T18:41:46.363Z,95527.00
2018-07-02T18:44:18.196Z,95528.00
2018-07-02T18:46:50.592Z,95532.00
2018-07-02T18:49:22.505Z,95522.00
2018-07-02T18:51:55.000Z,95524.00
2018-07-02T18:54:26.436Z,95525.00
2018-07-02T18:56:58.152Z,95526.00
2018-07-02T18:59:29.455Z,95529.00
2018-07-02T19:02:00.771Z,95531.00
2018-07-02T19:04:31.920Z,95531.00
2018-07-02T19:07:03.154Z,95546.00
2018-07-02T19:09:34.432Z,95541.00
2018-07-02T19:12:05.742Z,95554.00
2018-07-02T19:14:37.230Z,95548.00
2018-07-02T19:17:08.530Z,95548.00
2018-07-02T19:19:40.068Z,95547.00
2018-07-02T19:22:11.348Z,95549.00
2018-07-02T19:24:42.448Z,95547.00
2018-07-02T19:27:13.785Z,95554.00
2018-07-02T19:29:44.894Z,95552.00
2018-07-02T19:32:16.355Z,95566.00
2018-07-02T19:34:47.937Z,95568.00
2018-07-02T19:37:19.424Z,95566.00
2018-07-02T19:39:50.766Z,95567.00
2018-07-02T19:42:22.263Z,95569.00
2018-07-02T19:44:53.475Z,95577.00
2018-07-02T19:47:24.842Z,95575.00
2018-07-02T19:49:55.948Z,95574.00
2018-07-02T19:52:27.340Z,95577.00
2018-07-02T19:54:58.488Z,95577.00
2018-07-02T19:57:30.237Z,95580.00
2018-07-02T20:00:01.637Z,95590.00
2018-07-02T20:02:43.487Z,95591.00
2018-07-02T20:05:14.909Z,95600.00
2018-07-02T20:07:46.035Z,95596.00
2018-07-02T20:10:17.146Z,95596.00
2018-07-02T20:12:48.455Z,95599.00
2018-07-02T20:15:20.156Z,95603.00
2018-07-02T20:17:51.563Z,95604.00
2018-07-02T20:20:23.287Z,95604.00
2018-07-02T20:22:54.874Z,95605.00
2018-07-02T20:25:26.331Z,95609.00
2018-07-02T20:27:57.748Z,95613.00
2018-07-02T20:30:29.011Z,95610.00
2018-07-02T20:33:00.262Z,95615.00
2018-07-02T20:35:31.747Z,95619.00
2018-07-02T20:38:03.288Z,95616.00
2018-07-02T20:40:34.858Z,95619.00
2018-07-02T20:43:06.209Z,95624.00
2018-07-02T20:45:37.544Z,95627.00
2018-07-02T20:48:08.806Z,95628.00
2018-07-02T20:50:40.015Z,95628.00
2018-07-02T20:53:11.214Z,95626.00
2018-07-02T20:55:42.633Z,95627.00
2018-07-02T20:58:14.067Z,95626.00
2018-07-02T21:00:45.395Z,95627.00
2018-07-02T21:03:16.566Z,95630.00
2018-07-02T21:05:48.107Z,95629.00
2018-07-02T21:08:19.498Z,95638.00
2018-07-02T21:10:50.876Z,95645.00
2018-07-02T21:13:22.230Z,95652.00
2018-07-02T21:15:53.421Z,95656.00
2018-07-02T21:18:24.713Z,95663.00
2018-07-02T21:20:55.959Z,95655.00
2018-07-02T21:23:27.116Z,95652.00
2018-07-02T21:25:58.463Z,95653.00
2018-07-02T21:28:29.867Z,95647.00
2018-07-02T21:31:01.160Z,95649.00
2018-07-02T21:33:32.455Z,95648.00
2018-07-02T21:36:03.812Z,95644.00
2018-07-02T21:38:35.137Z,95644.00
2018-07-02T21:41:06.515Z,95647.00
2018-07-02T21:43:37.653Z,95657.00
2018-07-02T21:46:08.951Z,95662.00
2018-07-02T21:48:40.249Z,95668.00
2018-07-02T21:51:11.247Z,95668.00
2018-07-02T21:53:42.380Z,95666.00
2018-07-02T21:56:14.481Z,95670.00
2018-07-02T21:58:45.769Z,95668.00
2018-07-02T22:01:21.406Z,95671.00
2018-07-02T22:03:52.721Z,95681.00
2018-07-02T22:06:24.041Z,95689.00
2018-07-02T22:08:55.281Z,95690.00
2018-07-02T22:11:26.527Z,95692.00
2018-07-02T22:13:57.861Z,95686.00
2018-07-02T22:16:29.044Z,95677.00
2018-07-02T22:19:00.556Z,95677.00
2018-07-02T22:21:31.841Z,95675.00
2018-07-02T22:24:03.214Z,95682.00
2018-07-02T22:26:36.253Z,95683.00
2018-07-02T22:29:07.567Z,95680.00
2018-07-02T22:31:38.771Z,95687.00
2018-07-02T22:34:10.066Z,95688.00
2018-07-02T22:36:41.378Z,95685.00
2018-07-02T22:39:12.635Z,95679.00
2018-07-02T22:41:45.607Z,95682.00
2018-07-02T22:44:17.374Z,95684.00
2018-07-02T22:46:48.719Z,95688.00
2018-07-02T22:49:19.914Z,95686.00
2018-07-02T22:51:51.237Z,95680.00
2018-07-02T22:54:22.480Z,95688.00
2018-07-02T22:56:53.819Z,95694.00
2018-07-02T22:59:25.005Z,95694.00
2018-07-02T23:01:56.366Z,95690.00
2018-07-02T23:04:27.907Z,95697.00
2018-07-02T23:06:59.386Z,95697.00
2018-07-02T23:09:30.754Z,95696.00
2018-07-02T23:12:03.772Z,95692.00
2018-07-02T23:14:35.124Z,95691.00
2018-07-02T23:17:06.479Z,95692.00
2018-07-02T23:19:39.663Z,95692.00
2018-07-02T23:22:11.340Z,95693.00
2018-07-02T23:24:42.582Z,95694.00
2018-07-02T23:27:14.228Z,95697.00
2018-07-02T23:29:45.663Z,95698.00
2018-07-02T23:32:16.997Z,95697.00
2018-07-02T23:34:48.142Z,95692.00
2018-07-02T23:37:19.624Z,95693.00
2018-07-02T23:39:50.933Z,95688.00
2018-07-02T23:42:22.448Z,95690.00
2018-07-02T23:44:53.757Z,95689.00
2018-07-02T23:47:25.312Z,95687.00
2018-07-02T23:49:56.602Z,95686.00
2018-07-02T23:52:27.990Z,95685.00
2018-07-02T23:54:59.239Z,95680.00
2018-07-02T23:57:30.919Z,95679.00
